Time;durP1;ratioP1;P1;durP2;ratioP2;P2;SDS_P1;SDS_P2;PMS_P1;PMS_P2;Temp;Humidity;BMP_temperature;BMP_pressure;BME280_temperature;BME280_humidity;BME280_pressure;Samples;Min_cycle;Max_cycle;Signal;HPM_P1;HPM_P2
2021/12/14 00:00:53;;;;;;;5.25;2.20;;;;;;;7.27;78.43;101344.56;5076031;28;20501;-77
2021/12/14 00:03:21;;;;;;;5.38;1.95;;;;;;;7.22;78.79;101337.00;5076201;28;20387;-78
2021/12/14 00:05:47;;;;;;;6.55;2.00;;;;;;;7.22;78.47;101330.81;5076563;28;20032;-77
2021/12/14 00:08:14;;;;;;;5.28;1.80;;;;;;;7.19;78.71;101337.31;5075978;28;20357;-78
2021/12/14 00:10:56;;;;;;;5.45;2.28;;;;;;;7.20;78.77;101344.38;5076159;28;20032;-77
2021/12/14 00:16:07;;;;;;;4.07;1.75;;;;;;;7.18;78.86;101329.44;5076181;28;20035;-77
2021/12/14 00:18:34;;;;;;;7.60;2.15;;;;;;;7.17;78.74;101330.44;5075549;28;20151;-77
2021/12/14 00:21:09;;;;;;;6.93;1.92;;;;;;;7.12;78.77;101328.28;5075643;28;20036;-78
2021/12/14 00:26:22;;;;;;;5.60;2.30;;;;;;;7.15;78.93;101336.00;5075827;28;20036;-78
2021/12/14 00:28:49;;;;;;;3.95;1.98;;;;;;;7.15;79.12;101330.63;5075614;28;20028;-76
2021/12/14 00:31:17;;;;;;;5.10;1.90;;;;;;;7.09;79.25;101325.91;5075758;28;20467;-77
2021/12/14 00:33:51;;;;;;;5.15;2.03;;;;;;;7.07;79.20;101338.63;5075632;28;20028;-78
2021/12/14 00:36:16;;;;;;;3.50;1.48;;;;;;;7.06;79.48;101341.47;5075685;28;20146;-77
2021/12/14 00:38:43;;;;;;;4.22;1.80;;;;;;;7.06;79.45;101330.75;5075576;28;20032;-78
2021/12/14 00:41:16;;;;;;;8.75;2.17;;;;;;;7.06;79.90;101331.56;5075441;28;20101;-77
2021/12/14 00:43:43;;;;;;;4.43;2.05;;;;;;;7.06;79.62;101325.38;5075404;28;20036;-78
2021/12/14 00:46:09;;;;;;;5.20;1.92;;;;;;;7.09;79.16;101331.25;5075887;28;20670;-78
2021/12/14 00:48:35;;;;;;;6.03;1.88;;;;;;;7.07;79.65;101321.69;5094559;28;20039;-81
2021/12/14 00:51:02;;;;;;;5.10;2.05;;;;;;;7.04;79.40;101328.22;5076561;28;20033;-77
2021/12/14 00:53:29;;;;;;;4.35;1.90;;;;;;;7.03;79.61;101329.22;5075515;28;20044;-77
2021/12/14 00:55:57;;;;;;;3.90;1.45;;;;;;;7.00;79.77;101324.16;5075023;28;20479;-77
2021/12/14 00:58:23;;;;;;;4.72;1.85;;;;;;;7.01;79.43;101325.84;5075220;28;20032;-76
2021/12/14 01:01:01;;;;;;;5.57;1.98;;;;;;;7.01;79.61;101317.81;5075158;28;20505;-77
2021/12/14 01:03:30;;;;;;;4.55;1.70;;;;;;;7.01;79.92;101312.44;5074040;28;20040;-77
2021/12/14 01:05:57;;;;;;;4.75;1.90;;;;;;;7.02;79.26;101315.97;5050606;28;20064;-77
2021/12/14 01:08:25;;;;;;;7.55;2.20;;;;;;;7.02;79.21;101313.28;5074748;28;20025;-78
2021/12/14 01:11:02;;;;;;;4.45;2.05;;;;;;;6.99;79.68;101309.09;5074534;28;20031;-76
2021/12/14 01:13:29;;;;;;;4.57;1.60;;;;;;;7.02;79.48;101324.00;5075009;28;20395;-77
2021/12/14 01:16:29;;;;;;;5.82;1.80;;;;;;;7.05;79.57;101323.69;5074930;28;20090;-77
2021/12/14 01:19:19;;;;;;;5.10;2.25;;;;;;;7.00;79.97;101321.50;5074238;28;20540;-76
2021/12/14 01:24:52;;;;;;;5.15;1.90;;;;;;;6.97;80.13;101308.44;5074797;28;20414;-76
2021/12/14 01:27:21;;;;;;;4.75;1.80;;;;;;;6.95;80.13;101310.44;5074205;28;20037;-77
2021/12/14 01:29:49;;;;;;;5.65;2.00;;;;;;;6.95;80.08;101302.41;5074506;28;20024;-77
2021/12/14 01:32:15;;;;;;;3.90;1.83;;;;;;;6.93;80.55;101305.22;5074376;28;20378;-76
2021/12/14 01:34:41;;;;;;;;;;;;;;;6.94;80.03;101314.09;5074866;28;20479;-77
2021/12/14 01:37:13;;;;;;;6.63;1.92;;;;;;;6.95;80.30;101318.47;5074316;28;19952;-77
2021/12/14 01:40:00;;;;;;;5.22;1.85;;;;;;;6.95;79.94;101335.38;5074397;28;20028;-76
2021/12/14 01:42:29;;;;;;;4.30;1.60;;;;;;;6.98;80.04;101339.59;5074444;28;20043;-77
2021/12/14 01:44:59;;;;;;;4.53;1.70;;;;;;;6.96;80.41;101353.16;5074012;28;20037;-76
2021/12/14 01:47:41;;;;;;;6.28;2.28;;;;;;;7.00;80.31;101348.28;5073960;28;20123;-76
2021/12/14 01:50:13;;;;;;;6.47;2.05;;;;;;;7.00;80.24;101344.75;5074234;28;20043;-77
2021/12/14 01:52:40;;;;;;;6.05;1.92;;;;;;;6.99;80.26;101351.97;5073841;28;20047;-78
2021/12/14 01:55:18;;;;;;;5.15;2.03;;;;;;;7.00;80.67;101359.00;5072454;28;20024;-77
2021/12/14 01:57:43;;;;;;;4.68;1.80;;;;;;;7.00;80.54;101348.28;5073659;28;20031;-76
2021/12/14 02:00:14;;;;;;;4.82;2.20;;;;;;;7.00;80.80;101337.56;5074129;28;20044;-77
2021/12/14 02:02:42;;;;;;;4.93;2.00;;;;;;;7.01;80.84;101338.41;5073549;28;20032;-77
2021/12/14 02:05:33;;;;;;;5.25;2.28;;;;;;;6.97;80.97;101330.72;5073858;28;20044;-77
2021/12/14 02:08:03;;;;;;;4.63;2.17;;;;;;;6.97;80.78;101332.56;5073730;28;20425;-76
2021/12/14 02:10:34;;;;;;;4.38;2.10;;;;;;;6.96;81.30;101325.50;5074032;28;20036;-77
2021/12/14 02:13:00;;;;;;;4.40;2.20;;;;;;;6.93;81.09;101320.47;5073737;28;20032;-75
2021/12/14 02:15:36;;;;;;;4.43;1.88;;;;;;;6.92;81.45;101319.63;5072778;28;20456;-75
2021/12/14 02:18:14;;;;;;;5.47;2.33;;;;;;;6.89;81.62;101313.75;5072208;28;20542;-76
2021/12/14 02:20:57;;;;;;;6.63;2.22;;;;;;;6.88;81.69;101312.06;5073455;28;20036;-74
2021/12/14 02:23:24;;;;;;;5.05;2.28;;;;;;;6.87;81.74;101299.66;5073436;28;20037;-75
2021/12/14 02:25:52;;;;;;;5.07;2.30;;;;;;;6.85;82.06;101296.28;5072056;28;20459;-75
2021/12/14 02:28:20;;;;;;;4.68;1.98;;;;;;;6.83;82.16;101283.06;5073324;28;20032;-74
2021/12/14 02:30:49;;;;;;;6.68;2.28;;;;;;;6.86;82.00;101298.81;5073763;28;20024;-74
2021/12/14 02:33:24;;;;;;;5.38;2.15;;;;;;;6.83;82.06;101276.84;5073201;28;20035;-78
2021/12/14 02:35:52;;;;;;;4.57;1.83;;;;;;;6.83;82.09;101275.03;5073677;28;20052;-75
2021/12/14 02:38:18;;;;;;;5.55;2.17;;;;;;;6.81;82.06;101273.50;5073281;28;20082;-74
2021/12/14 02:41:05;;;;;;;5.80;2.25;;;;;;;6.75;82.80;101266.13;5073112;28;20467;-74
2021/12/14 02:43:45;;;;;;;5.27;2.33;;;;;;;6.75;82.75;101250.06;5073426;28;20025;-75
2021/12/14 02:46:33;;;;;;;5.18;2.15;;;;;;;6.69;82.85;101248.00;5073301;28;20028;-74
2021/12/14 02:49:03;;;;;;;5.32;1.92;;;;;;;6.82;82.37;101256.44;5073124;28;20046;-75
2021/12/14 02:51:51;;;;;;;5.45;1.85;;;;;;;6.75;82.64;101255.41;5073303;28;20039;-75
2021/12/14 02:54:24;;;;;;;8.10;3.25;;;;;;;6.74;83.10;101259.09;5072975;28;20459;-79
2021/12/14 02:56:56;;;;;;;5.03;1.95;;;;;;;6.73;83.61;101277.00;5075465;28;20052;-77
2021/12/14 02:59:25;;;;;;;5.78;2.50;;;;;;;6.72;83.41;101271.78;5074130;28;20439;-78
2021/12/14 03:01:53;;;;;;;6.57;2.60;;;;;;;6.68;83.71;101249.84;5073129;28;20445;-77
2021/12/14 03:04:21;;;;;;;6.65;3.00;;;;;;;6.70;83.71;101263.91;5042215;28;20068;-77
2021/12/14 03:06:52;;;;;;;7.60;2.70;;;;;;;6.71;84.08;101272.78;5067762;28;20037;-77
2021/12/14 03:09:39;;;;;;;6.05;2.42;;;;;;;6.71;83.30;101262.91;5073455;28;20025;-77
2021/12/14 03:12:13;;;;;;;;;;;;;;;6.70;83.90;101250.53;5073334;28;20032;-77
2021/12/14 03:14:46;;;;;;;6.57;2.65;;;;;;;6.69;83.91;101239.97;5072711;28;19912;-78
2021/12/14 03:17:12;;;;;;;8.25;3.03;;;;;;;6.70;83.89;101229.09;5072838;28;20036;-78
2021/12/14 03:19:37;;;;;;;6.13;2.20;;;;;;;6.68;83.84;101224.91;5072754;28;20032;-79
2021/12/14 03:22:21;;;;;;;7.13;3.55;;;;;;;6.66;84.21;101225.06;5072998;28;20041;-77
2021/12/14 03:24:46;;;;;;;6.85;2.58;;;;;;;6.67;83.70;101236.59;5072776;28;20031;-77
2021/12/14 03:27:11;;;;;;;6.68;2.65;;;;;;;6.66;84.23;101242.97;5076213;28;20028;-77
2021/12/14 03:29:37;;;;;;;7.33;2.87;;;;;;;6.65;83.82;101241.28;5076928;28;20033;-77
2021/12/14 03:32:03;;;;;;;6.38;2.92;;;;;;;6.63;84.01;101238.75;5076747;28;20589;-76
2021/12/14 03:34:38;;;;;;;7.97;2.85;;;;;;;6.68;83.99;101236.44;5076570;28;20383;-76
2021/12/14 03:37:28;;;;;;;8.55;2.50;;;;;;;6.67;83.83;101226.72;5076306;28;20059;-77
2021/12/14 03:39:59;;;;;;;7.32;2.83;;;;;;;6.65;83.60;101235.91;5075979;28;20044;-76
2021/12/14 03:42:36;;;;;;;6.53;3.05;;;;;;;6.64;84.57;101243.13;5076677;28;20025;-77
2021/12/14 03:45:05;;;;;;;7.03;2.67;;;;;;;6.63;84.38;101254.81;5076136;28;20032;-77
2021/12/14 03:47:35;;;;;;;6.47;2.63;;;;;;;6.65;84.36;101252.00;5075934;28;20028;-77
2021/12/14 03:50:21;;;;;;;9.60;3.00;;;;;;;6.68;84.27;101249.00;5076373;28;20493;-77
2021/12/14 03:52:47;;;;;;;8.18;3.13;;;;;;;6.67;84.25;101271.41;5075979;28;20095;-76
2021/12/14 03:55:21;;;;;;;7.10;2.95;;;;;;;6.66;84.46;101264.38;5076167;28;20029;-76
2021/12/14 03:57:46;;;;;;;7.85;3.22;;;;;;;6.63;84.89;101264.72;5075911;28;20380;-76
2021/12/14 04:00:17;;;;;;;10.27;4.55;;;;;;;6.60;84.85;101260.53;5076201;28;20036;-76
2021/12/14 04:02:42;;;;;;;10.20;3.35;;;;;;;6.58;84.68;101258.00;5075994;28;20029;-77
2021/12/14 04:05:12;;;;;;;11.60;4.13;;;;;;;6.55;85.40;101254.78;5076153;28;20031;-77
2021/12/14 04:07:41;;;;;;;14.43;4.35;;;;;;;6.52;85.79;101266.66;5074745;28;20036;-77
2021/12/14 04:10:12;;;;;;;12.55;4.07;;;;;;;6.47;85.88;101276.16;5091486;28;20121;-77
2021/12/14 04:12:37;;;;;;;9.77;3.30;;;;;;;6.41;87.00;101277.63;5076306;28;20024;-77
2021/12/14 04:15:04;;;;;;;9.65;3.97;;;;;;;6.32;87.19;101272.38;5076136;28;20119;-77
2021/12/14 04:17:31;;;;;;;10.10;3.80;;;;;;;6.28;87.69;101277.19;5075384;28;20497;-77
2021/12/14 04:19:56;;;;;;;10.52;3.75;;;;;;;6.20;88.85;101269.97;5074604;28;20040;-77
2021/12/14 04:22:25;;;;;;;8.93;4.18;;;;;;;6.12;89.44;101259.19;5075777;28;20471;-76
2021/12/14 04:24:59;;;;;;;11.82;3.58;;;;;;;6.07;89.68;101263.34;5075265;28;20075;-77
2021/12/14 04:27:29;;;;;;;13.35;4.13;;;;;;;6.07;89.35;101261.50;5075636;28;20041;-77
2021/12/14 04:29:56;;;;;;;11.90;4.18;;;;;;;6.04;89.79;101266.31;5075742;28;20020;-77
2021/12/14 04:32:22;;;;;;;12.55;4.47;;;;;;;6.02;90.65;101268.31;5075411;28;20382;-76
2021/12/14 04:34:49;;;;;;;11.65;5.03;;;;;;;6.01;90.95;101280.00;5075597;28;20029;-77
2021/12/14 04:37:17;;;;;;;12.45;4.57;;;;;;;6.00;90.52;101283.66;5074343;28;20096;-77
2021/12/14 04:39:54;;;;;;;14.95;4.47;;;;;;;5.98;90.49;101291.00;5075548;28;20040;-77
2021/12/14 04:51:57;;;;;;;12.32;4.43;;;;;;;5.98;90.74;101285.66;5075345;28;20055;-77
2021/12/14 04:54:02;;;;;;;14.05;4.80;;;;;;;5.97;90.79;101271.44;5074946;28;20119;-76
2021/12/14 04:56:35;;;;;;;12.57;3.80;;;;;;;5.98;90.48;101277.63;5075065;28;20480;-76
2021/12/14 04:59:09;;;;;;;14.10;5.38;;;;;;;5.97;90.84;101281.28;5075072;28;20024;-76
2021/12/14 05:01:37;;;;;;;17.77;5.45;;;;;;;6.00;90.66;101278.31;5074922;28;20033;-76
2021/12/14 05:04:07;;;;;;;18.52;5.70;;;;;;;5.98;90.51;101272.28;5074740;28;20467;-77
2021/12/14 05:06:46;;;;;;;15.85;4.78;;;;;;;5.97;90.64;101270.59;5042696;28;21162;-76
2021/12/14 05:11:52;;;;;;;17.35;5.38;;;;;;;6.00;91.40;101286.34;5074989;28;20029;-77
2021/12/14 05:14:19;;;;;;;14.73;4.85;;;;;;;6.06;91.41;101285.72;5073874;28;20036;-77
2021/12/14 05:16:44;;;;;;;18.95;6.25;;;;;;;6.05;91.15;101271.50;5074508;28;20031;-78
2021/12/14 05:19:11;;;;;;;14.80;4.88;;;;;;;6.00;91.11;101279.16;5075051;28;20115;-78
2021/12/14 05:21:42;;;;;;;17.20;6.50;;;;;;;6.00;91.06;101276.47;5074632;28;20086;-77
2021/12/14 05:24:11;;;;;;;18.38;6.45;;;;;;;6.01;90.80;101290.69;5074389;28;20059;-77
2021/12/14 05:26:37;;;;;;;26.50;7.07;;;;;;;6.01;90.72;101280.00;5074356;28;20067;-77
2021/12/14 05:29:05;;;;;;;23.33;6.38;;;;;;;6.00;91.11;101271.13;5074644;28;20029;-78
2021/12/14 05:31:31;;;;;;;21.88;6.88;;;;;;;5.97;90.66;101273.25;5074329;28;20064;-77
2021/12/14 05:33:57;;;;;;;18.00;6.93;;;;;;;5.98;90.83;101272.28;5074266;28;20056;-77
2021/12/14 05:36:23;;;;;;;21.80;7.82;;;;;;;6.01;91.63;101261.28;5074475;28;20045;-78
2021/12/14 05:39:03;;;;;;;21.88;7.05;;;;;;;6.00;91.09;101267.63;5075094;28;20458;-77
2021/12/14 05:44:25;;;;;;;21.27;7.68;;;;;;;6.04;91.61;101274.34;5074623;28;20067;-77
2021/12/14 05:46:55;;;;;;;19.70;7.35;;;;;;;6.02;90.79;101270.97;5074714;28;20498;-78
2021/12/14 05:49:23;;;;;;;18.55;6.82;;;;;;;6.04;91.09;101269.00;5074232;28;20131;-77
2021/12/14 05:51:51;;;;;;;18.48;6.68;;;;;;;6.02;91.00;101265.63;5075747;28;20112;-78
2021/12/14 05:54:26;;;;;;;20.48;7.45;;;;;;;6.05;91.11;101260.81;5074078;28;20033;-79
2021/12/14 05:56:53;;;;;;;18.42;6.20;;;;;;;6.03;90.56;101253.94;5073065;28;20063;-78
2021/12/14 05:59:24;;;;;;;22.00;7.55;;;;;;;6.03;90.93;101240.56;5074332;28;20036;-79
2021/12/14 06:01:50;;;;;;;21.20;7.53;;;;;;;6.02;91.20;101242.38;5074514;28;20126;-77
2021/12/14 06:04:16;;;;;;;24.73;7.55;;;;;;;6.02;91.38;101252.25;5074261;28;20554;-77
2021/12/14 06:06:43;;;;;;;;;;;;;;;6.06;91.27;101261.66;5074088;28;20055;-77
2021/12/14 06:09:13;;;;;;;18.15;5.68;;;;;;;6.07;91.11;101258.81;5074149;28;20363;-77
2021/12/14 06:11:39;;;;;;;18.33;7.07;;;;;;;6.06;90.88;101265.16;5074115;28;20032;-77
2021/12/14 06:14:24;;;;;;;21.83;5.88;;;;;;;6.07;91.17;101258.00;5074040;28;20031;-78
2021/12/14 06:16:53;;;;;;;19.25;6.85;;;;;;;6.07;90.65;101264.19;5073154;28;20037;-76
2021/12/14 06:19:25;;;;;;;26.98;7.82;;;;;;;6.10;91.01;101276.38;5073516;28;20421;-77
2021/12/14 06:21:56;;;;;;;21.63;6.60;;;;;;;6.10;90.85;101271.03;5073820;28;20069;-77
2021/12/14 06:24:28;;;;;;;17.05;5.93;;;;;;;6.14;90.10;101275.91;5073396;28;20494;-77
2021/12/14 06:26:55;;;;;;;21.30;7.43;;;;;;;6.12;90.37;101277.91;5073732;28;20479;-80
2021/12/14 06:29:24;;;;;;;22.38;7.35;;;;;;;6.13;90.89;101270.72;5074034;28;20108;-79
2021/12/14 06:31:51;;;;;;;23.17;8.27;;;;;;;6.21;90.07;101271.63;5089305;28;20024;-77
2021/12/14 06:34:29;;;;;;;21.08;6.30;;;;;;;6.19;90.91;101272.78;5073398;28;20028;-77
2021/12/14 06:37:03;;;;;;;20.02;6.47;;;;;;;6.16;90.08;101273.94;5073047;28;20083;-78
2021/12/14 06:39:30;;;;;;;23.40;7.63;;;;;;;6.14;90.49;101275.09;5073415;28;20036;-77
2021/12/14 06:42:07;;;;;;;25.20;6.90;;;;;;;6.13;90.76;101271.56;5073218;28;20036;-77
2021/12/14 06:44:32;;;;;;;20.35;6.82;;;;;;;6.11;90.50;101278.91;5072314;28;20032;-76
2021/12/14 06:46:58;;;;;;;20.48;7.20;;;;;;;6.10;90.54;101276.38;5073341;28;20055;-77
2021/12/14 06:49:23;;;;;;;17.77;5.65;;;;;;;6.14;90.77;101280.44;5073354;28;20507;-77
2021/12/14 06:51:52;;;;;;;17.52;5.95;;;;;;;6.14;90.19;101296.47;5073558;28;20047;-78
2021/12/14 06:54:24;;;;;;;17.70;6.72;;;;;;;6.15;90.69;101299.00;5073222;28;20119;-77
2021/12/14 06:56:53;;;;;;;16.63;6.43;;;;;;;6.13;90.32;101310.84;5073900;28;20033;-78
2021/12/14 06:59:21;;;;;;;20.88;7.25;;;;;;;6.12;90.47;101319.88;5073805;28;20376;-77
2021/12/14 07:01:53;;;;;;;18.30;5.97;;;;;;;6.13;90.39;101322.41;5072559;28;20024;-77
2021/12/14 07:04:27;;;;;;;15.95;5.35;;;;;;;6.16;89.88;101318.59;5073502;28;20430;-77
2021/12/14 07:06:58;;;;;;;22.67;7.15;;;;;;;6.19;90.26;101328.97;5089041;28;20029;-78
2021/12/14 07:09:33;;;;;;;20.00;7.03;;;;;;;6.27;90.16;101323.69;5031895;28;20079;-77
2021/12/14 07:12:15;;;;;;;23.67;7.45;;;;;;;6.23;89.77;101319.66;5073237;28;20060;-77
2021/12/14 07:14:41;;;;;;;18.63;6.63;;;;;;;6.22;90.35;101326.00;5081094;28;20051;-78
2021/12/14 07:17:20;;;;;;;17.90;5.78;;;;;;;6.23;90.11;101322.34;5088976;28;20028;-78
2021/12/14 07:19:55;;;;;;;21.50;6.72;;;;;;;6.36;89.71;101317.41;5076356;28;20452;-78
2021/12/14 07:22:28;;;;;;;18.02;6.88;;;;;;;6.36;89.57;101322.75;5089332;28;20032;-77
2021/12/14 07:25:01;;;;;;;20.95;5.97;;;;;;;6.36;88.91;101328.13;5073499;28;20029;-77
2021/12/14 07:27:37;;;;;;;22.00;7.22;;;;;;;6.32;89.29;101336.59;5073704;28;20037;-80
2021/12/14 07:30:41;;;;;;;21.48;6.40;;;;;;;6.35;89.42;101341.66;5073283;28;20417;-77
2021/12/14 07:33:16;;;;;;;20.40;6.10;;;;;;;6.59;89.81;101347.22;5072342;28;20036;-77
2021/12/14 07:35:52;;;;;;;17.95;6.15;;;;;;;6.59;89.12;101352.56;5073188;28;20057;-78
2021/12/14 07:38:22;;;;;;;18.40;5.90;;;;;;;6.57;88.46;101357.22;5073161;28;20068;-77
2021/12/14 07:41:10;;;;;;;16.95;5.88;;;;;;;6.41;89.10;101365.97;5074444;28;20025;-78
2021/12/14 07:43:48;;;;;;;19.58;6.38;;;;;;;6.45;89.52;101369.19;5069209;28;20041;-78
2021/12/14 07:46:19;;;;;;;20.90;6.30;;;;;;;6.48;88.81;101364.34;5073084;28;20029;-78
2021/12/14 07:49:00;;;;;;;21.25;6.75;;;;;;;6.42;88.99;101370.34;5073737;28;20032;-77
2021/12/14 07:51:30;;;;;;;18.25;6.85;;;;;;;6.38;88.99;101370.78;5073790;28;20028;-79
2021/12/14 07:54:03;;;;;;;23.25;7.70;;;;;;;6.42;90.07;101374.84;5073227;28;20028;-78
2021/12/14 07:56:37;;;;;;;23.02;7.13;;;;;;;6.48;89.78;101380.41;5088971;28;20028;-78
2021/12/14 07:59:10;;;;;;;24.48;7.80;;;;;;;6.40;88.91;101382.19;5072670;28;20024;-78
2021/12/14 08:01:35;;;;;;;21.55;6.65;;;;;;;6.47;88.82;101385.91;5073190;28;20025;-79
2021/12/14 08:04:12;;;;;;;24.30;8.38;;;;;;;6.38;89.54;101385.03;5076530;28;20068;-78
2021/12/14 08:06:54;;;;;;;21.33;7.60;;;;;;;6.32;88.95;101385.63;5076457;28;20094;-78
2021/12/14 08:09:46;;;;;;;22.05;7.10;;;;;;;6.37;90.08;101390.53;5077819;28;20035;-78
2021/12/14 08:12:46;;;;;;;25.38;8.00;;;;;;;6.46;88.80;101392.25;5075026;28;20046;-77
2021/12/14 08:15:19;;;;;;;21.13;7.72;;;;;;;6.60;88.62;101399.75;5077834;28;20401;-77
2021/12/14 08:17:56;;;;;;;15.70;6.38;;;;;;;6.74;89.02;101407.25;5078288;28;20034;-78
2021/12/14 08:20:23;;;;;;;22.60;7.40;;;;;;;6.67;88.71;101416.03;5077213;28;20077;-78
2021/12/14 08:22:48;;;;;;;19.02;8.00;;;;;;;6.65;87.98;101413.50;5076648;28;20028;-75
2021/12/14 08:25:22;;;;;;;21.40;7.60;;;;;;;6.65;88.62;101415.34;5075920;28;20032;-76
2021/12/14 08:28:00;;;;;;;24.45;7.88;;;;;;;6.63;87.93;101409.34;5091762;28;20033;-76
2021/12/14 08:30:26;;;;;;;22.13;7.38;;;;;;;6.51;87.98;101414.91;5074939;28;20032;-75
2021/12/14 08:32:51;;;;;;;;;;;;;;;6.53;88.28;101407.56;5075959;28;20116;-78
2021/12/14 08:35:17;;;;;;;20.45;8.00;;;;;;;6.48;88.67;101415.22;5078087;28;19963;-78
2021/12/14 08:37:46;;;;;;;22.63;7.68;;;;;;;6.48;88.81;101409.00;5094141;28;20052;-78
2021/12/14 08:40:23;;;;;;;23.95;7.80;;;;;;;6.46;88.99;101402.97;5078333;28;20077;-77
2021/12/14 08:43:02;;;;;;;20.63;6.32;;;;;;;6.36;89.04;101402.22;5078410;28;20021;-78
2021/12/14 08:45:39;;;;;;;18.65;6.55;;;;;;;6.36;89.29;101403.06;5077076;28;20028;-77
2021/12/14 08:48:09;;;;;;;25.95;7.22;;;;;;;6.38;88.85;101401.09;5075836;28;20043;-76
2021/12/14 08:50:40;;;;;;;23.23;7.28;;;;;;;6.36;88.61;101392.34;5075663;28;20036;-76
2021/12/14 08:53:08;;;;;;;19.55;7.10;;;;;;;6.34;89.05;101397.03;5075913;28;20031;-77
2021/12/14 08:55:36;;;;;;;19.63;6.47;;;;;;;6.38;88.80;101400.25;5075470;28;20064;-77
2021/12/14 08:58:03;;;;;;;21.38;6.95;;;;;;;6.31;89.46;101391.13;5076055;28;20477;-77
2021/12/14 09:00:34;;;;;;;23.35;7.07;;;;;;;6.27;89.53;101394.09;5076036;28;20032;-77
2021/12/14 09:03:01;;;;;;;18.23;6.97;;;;;;;6.26;88.83;101392.47;5075098;28;20090;-76
2021/12/14 09:05:33;;;;;;;24.63;8.43;;;;;;;6.26;89.05;101388.94;5091186;28;20043;-76
2021/12/14 09:07:58;;;;;;;20.67;6.57;;;;;;;6.27;89.33;101399.47;5062839;28;20047;-77
2021/12/14 09:10:28;;;;;;;25.33;8.55;;;;;;;6.29;88.97;101396.63;5076456;28;20391;-76
2021/12/14 09:12:59;;;;;;;26.20;7.47;;;;;;;6.32;88.83;101401.69;5077334;28;20035;-78
2021/12/14 09:15:33;;;;;;;23.58;8.88;;;;;;;6.37;89.21;101409.25;5076953;28;20398;-77
2021/12/14 09:17:59;;;;;;;21.70;7.68;;;;;;;6.36;88.77;101397.72;5075738;28;20486;-78
2021/12/14 09:20:39;;;;;;;22.70;8.13;;;;;;;6.35;89.16;101412.09;5074655;28;20100;-77
2021/12/14 09:23:12;;;;;;;18.67;7.80;;;;;;;6.39;89.38;101408.13;5075381;28;20032;-79
2021/12/14 09:25:39;;;;;;;21.25;6.63;;;;;;;6.35;88.77;101403.22;5076355;28;20032;-78
2021/12/14 09:28:06;;;;;;;23.45;7.35;;;;;;;6.37;88.60;101410.09;5075944;28;20077;-78
2021/12/14 09:30:36;;;;;;;24.02;8.55;;;;;;;6.40;88.88;101404.44;5076298;28;20033;-77
2021/12/14 09:33:03;;;;;;;24.55;8.95;;;;;;;6.39;88.55;101402.75;5077081;28;20035;-78
2021/12/14 09:35:31;;;;;;;29.38;8.05;;;;;;;6.42;88.75;101405.13;5076264;28;20363;-78
2021/12/14 09:37:58;;;;;;;22.08;8.13;;;;;;;6.39;88.57;101402.75;5075401;28;20463;-79
2021/12/14 09:40:40;;;;;;;24.40;9.20;;;;;;;6.40;89.02;101404.44;5074678;28;20094;-77
2021/12/14 09:43:06;;;;;;;22.05;8.00;;;;;;;6.45;88.59;101409.34;5076514;28;20043;-78
2021/12/14 09:45:42;;;;;;;19.42;7.38;;;;;;;6.43;88.54;101414.00;5076793;28;20036;-78
2021/12/14 09:48:10;;;;;;;22.17;7.70;;;;;;;6.50;88.18;101420.41;5077839;28;20083;-78
2021/12/14 09:50:36;;;;;;;21.80;8.45;;;;;;;6.47;88.35;101420.72;5094459;28;20032;-78
2021/12/14 09:53:09;;;;;;;;;;;;;;;6.48;88.79;101422.41;5077706;28;20028;-78
2021/12/14 09:55:39;;;;;;;23.58;8.20;;;;;;;6.50;87.98;101425.78;5078057;28;20402;-79
2021/12/14 09:58:09;;;;;;;24.42;8.63;;;;;;;6.47;88.21;101418.88;5092014;28;20046;-78
2021/12/14 10:00:39;;;;;;;22.70;8.52;;;;;;;6.49;88.01;101421.41;5075896;28;20060;-78
2021/12/14 10:03:05;;;;;;;24.33;8.68;;;;;;;6.53;88.28;101420.13;5075459;28;20410;-78
2021/12/14 10:05:51;;;;;;;;;;;;;;;6.70;87.97;101418.41;5075234;28;20033;-77
2021/12/14 10:08:21;;;;;;;23.02;7.50;;;;;;;6.78;87.61;101431.88;5076043;28;20002;-78
2021/12/14 10:11:00;;;;;;;20.63;7.03;;;;;;;6.71;87.42;101431.66;5075687;28;20538;-78
2021/12/14 10:13:26;;;;;;;23.55;7.60;;;;;;;6.85;86.67;101432.91;5074866;28;20071;-78
2021/12/14 10:15:54;;;;;;;21.58;7.97;;;;;;;6.81;87.08;101434.22;5075141;28;20025;-77
2021/12/14 10:18:28;;;;;;;22.48;7.90;;;;;;;6.80;86.66;101427.22;5075305;28;20045;-77
2021/12/14 10:21:11;;;;;;;23.95;7.43;;;;;;;6.83;86.86;101413.47;5075705;28;20064;-79
2021/12/14 10:23:38;;;;;;;22.27;7.15;;;;;;;6.80;86.62;101422.69;5075685;28;20037;-77
2021/12/14 10:26:04;;;;;;;22.55;8.32;;;;;;;6.83;86.71;101411.63;5074761;28;20024;-78
2021/12/14 10:28:32;;;;;;;20.63;7.15;;;;;;;6.79;87.25;101418.34;5075738;28;20123;-78
2021/12/14 10:31:06;;;;;;;23.95;7.72;;;;;;;6.79;87.01;101412.13;5075523;28;20109;-78
2021/12/14 10:33:34;;;;;;;19.85;7.90;;;;;;;6.77;86.59;101414.13;5075050;28;20021;-78
2021/12/14 10:36:16;;;;;;;24.17;7.80;;;;;;;6.83;86.32;101421.50;5074500;28;20158;-78
2021/12/14 10:39:02;;;;;;;27.65;8.98;;;;;;;6.82;86.49;101417.16;5075547;28;20032;-77
2021/12/14 10:44:10;;;;;;;23.35;8.02;;;;;;;6.87;86.27;101402.31;5075170;28;20189;-79
2021/12/14 10:46:45;;;;;;;21.08;8.93;;;;;;;6.99;85.87;101404.75;5074434;28;20062;-77
2021/12/14 10:49:10;;;;;;;21.20;8.45;;;;;;;6.97;85.99;101404.91;5074772;28;20037;-78
2021/12/14 10:54:38;;;;;;;24.17;9.73;;;;;;;6.95;86.24;101404.22;5077936;28;20066;-80
2021/12/14 10:57:10;;;;;;;18.58;7.82;;;;;;;6.97;85.63;101403.06;5078177;28;20021;-78
2021/12/14 10:59:40;;;;;;;21.75;7.80;;;;;;;7.04;85.60;101399.72;5077738;28;20032;-78
2021/12/14 11:02:06;;;;;;;21.70;7.60;;;;;;;7.08;86.05;101398.41;5075261;28;20027;-78
2021/12/14 11:04:38;;;;;;;;;;;;;;;7.03;85.78;101401.56;5029878;28;20055;-79
2021/12/14 11:07:12;;;;;;;20.35;6.50;;;;;;;7.05;85.88;101388.00;5068294;28;20359;-79
2021/12/14 11:10:02;;;;;;;18.67;7.90;;;;;;;7.02;85.84;101399.88;5074949;28;20032;-78
2021/12/14 11:12:40;;;;;;;21.90;8.63;;;;;;;6.99;85.73;101389.47;5075498;28;20044;-78
2021/12/14 11:15:13;;;;;;;18.60;7.13;;;;;;;7.00;85.67;101385.78;5074999;28;20071;-80
2021/12/14 11:20:57;;;;;;;24.60;9.27;;;;;;;6.89;86.23;101370.84;5079338;28;20040;-79
2021/12/14 11:23:52;;;;;;;26.90;8.48;;;;;;;6.88;86.57;101376.34;5076154;28;20047;-80
2021/12/14 11:26:34;;;;;;;20.20;7.22;;;;;;;6.96;86.51;101379.94;5071485;28;20044;-79
2021/12/14 11:29:16;;;;;;;21.90;8.40;;;;;;;6.93;86.73;101374.91;5074984;28;20037;-78
2021/12/14 11:31:54;;;;;;;17.90;7.25;;;;;;;6.95;86.36;101372.06;5075359;28;20044;-79
2021/12/14 11:34:37;;;;;;;22.23;8.35;;;;;;;6.92;86.36;101370.53;5075559;28;20036;-79
2021/12/14 11:37:21;;;;;;;19.75;7.22;;;;;;;6.93;86.63;101366.00;5075538;28;20449;-79
2021/12/14 11:39:51;;;;;;;21.00;8.20;;;;;;;6.95;86.11;101361.34;5076441;28;20031;-79
2021/12/14 11:42:19;;;;;;;22.88;9.18;;;;;;;6.98;86.42;101371.75;5079035;28;20025;-81
2021/12/14 11:44:51;;;;;;;20.27;8.23;;;;;;;7.05;86.25;101367.41;5078922;28;20028;-80
2021/12/14 11:47:42;;;;;;;22.75;8.32;;;;;;;7.07;86.37;101375.28;5081442;28;20037;-79
2021/12/14 11:50:31;;;;;;;23.48;8.27;;;;;;;7.10;85.57;101369.63;5081177;28;20058;-79
2021/12/14 11:53:02;;;;;;;24.75;8.95;;;;;;;7.06;86.09;101374.44;5082054;28;20032;-78
2021/12/14 11:55:46;;;;;;;18.05;7.55;;;;;;;7.02;85.99;101377.59;5081938;28;20029;-77
2021/12/14 11:58:36;;;;;;;18.35;8.00;;;;;;;7.07;86.18;101375.28;5101780;28;20046;-79
2021/12/14 12:01:09;;;;;;;22.27;8.32;;;;;;;7.02;85.66;101378.44;5087262;28;20017;-80
2021/12/14 12:03:56;;;;;;;22.80;7.43;;;;;;;7.04;86.55;101378.28;5098053;28;20024;-79
2021/12/14 12:09:28;;;;;;;22.00;7.47;;;;;;;7.11;86.10;101368.63;5083047;28;20463;-79
2021/12/14 12:12:06;;;;;;;22.27;7.85;;;;;;;7.07;85.83;101367.25;5097962;28;20093;-80
2021/12/14 12:14:52;;;;;;;18.33;7.97;;;;;;;7.11;85.96;101366.78;5094707;28;20020;-79
2021/12/14 12:17:43;;;;;;;20.55;7.13;;;;;;;7.07;86.06;101370.78;5096389;28;20024;-80
2021/12/14 12:20:29;;;;;;;18.25;7.13;;;;;;;7.16;85.73;101374.34;5078472;28;20039;-78
2021/12/14 12:23:21;;;;;;;22.83;8.27;;;;;;;7.21;85.78;101369.34;5076707;28;20029;-78
2021/12/14 12:25:49;;;;;;;20.65;7.38;;;;;;;7.25;85.65;101365.34;5094545;28;20028;-79
2021/12/14 12:28:32;;;;;;;20.98;6.78;;;;;;;7.22;85.46;101374.53;5093988;28;20029;-77